Time;durP1;ratioP1;P1;durP2;ratioP2;P2;SDS_P1;SDS_P2;PMS_P1;PMS_P2;Temp;Humidity;BMP_temperature;BMP_pressure;BME280_temperature;BME280_humidity;BME280_pressure;Samples;Min_cycle;Max_cycle;Signal;HPM_P1;HPM_P2
2023/06/28 00:02:10;;;;;;;;;;;14.50;99.90;;;;;;5093702;28;19926;-80
2023/06/28 00:04:36;;;;;;;;;;;14.50;99.90;;;;;;5093180;28;19959;-77
2023/06/28 00:07:08;;;;;;;;;;;14.50;99.90;;;;;;5094406;28;19984;-77
2023/06/28 00:09:34;;;;;;;;;;;14.50;99.90;;;;;;5094073;28;19920;-79
2023/06/28 00:12:00;;;;;;;;;;;14.50;99.90;;;;;;5094045;28;20031;-78
2023/06/28 00:14:25;;;;;;;;;;;14.50;99.90;;;;;;5075893;28;19976;-79
2023/06/28 00:16:51;;;;;;;;;;;14.40;99.90;;;;;;5093347;28;19924;-79
2023/06/28 00:19:26;;;;;;;;;;;14.40;99.90;;;;;;5093968;28;19967;-78
2023/06/28 00:21:55;;;;;;;;;;;14.50;99.90;;;;;;5093642;28;20310;-77
2023/06/28 00:24:21;;;;;;;;;;;14.40;99.90;;;;;;5093554;28;19916;-81
2023/06/28 00:26:47;;;;;;;;;;;14.40;99.90;;;;;;5076683;28;19965;-78
2023/06/28 00:29:14;;;;;;;;;;;14.40;99.90;;;;;;5076415;28;20385;-76
2023/06/28 00:31:39;;;;;;;;;;;14.30;99.90;;;;;;5093384;28;20335;-80
2023/06/28 00:34:05;;;;;;;;;;;14.40;99.90;;;;;;5093094;28;20015;-78
2023/06/28 00:36:31;;;;;;;;;;;14.30;99.90;;;;;;5093185;28;20384;-77
2023/06/28 00:38:57;;;;;;;;;;;14.30;99.90;;;;;;5093048;28;19946;-78
2023/06/28 00:41:22;;;;;;;;;;;14.30;99.90;;;;;;5093046;28;19916;-77
2023/06/28 00:43:48;;;;;;;;;;;14.30;99.90;;;;;;5092387;28;19916;-80
2023/06/28 00:46:14;;;;;;;;;;;14.30;99.90;;;;;;5076442;28;20262;-81
2023/06/28 00:48:40;;;;;;;;;;;14.30;99.90;;;;;;5092716;28;19920;-78
2023/06/28 00:51:06;;;;;;;;;;;14.30;99.90;;;;;;5093145;28;20005;-76
2023/06/28 00:53:32;;;;;;;;;;;14.30;99.90;;;;;;5092629;28;20381;-80
2023/06/28 00:55:59;;;;;;;;;;;14.30;99.90;;;;;;5076475;28;19950;-79
2023/06/28 00:58:28;;;;;;;;;;;14.30;99.90;;;;;;5093006;28;19965;-79
2023/06/28 01:00:54;;;;;;;;;;;14.40;99.90;;;;;;5092684;28;20383;-80
2023/06/28 01:03:20;;;;;;;;;;;14.40;99.90;;;;;;5093328;28;19916;-81
2023/06/28 01:05:50;;;;;;;;;;;14.30;99.90;;;;;;5092174;28;20018;-81
2023/06/28 01:08:17;;;;;;;;;;;14.30;99.90;;;;;;5093064;28;19952;-78
2023/06/28 01:10:43;;;;;;;;;;;14.30;99.90;;;;;;5092325;28;19970;-78
2023/06/28 01:13:09;;;;;;;;;;;14.30;99.90;;;;;;5076441;28;19974;-76
2023/06/28 01:15:35;;;;;;;;;;;14.30;99.90;;;;;;5075380;28;20307;-77
2023/06/28 01:18:01;;;;;;;;;;;14.30;99.90;;;;;;5092552;28;19924;-80
2023/06/28 01:20:30;;;;;;;;;;;14.30;99.90;;;;;;5093375;28;19920;-79
2023/06/28 01:22:56;;;;;;;;;;;14.20;99.90;;;;;;5076057;28;19965;-78
2023/06/28 01:25:21;;;;;;;;;;;14.20;99.90;;;;;;5092105;28;19920;-78
2023/06/28 01:27:48;;;;;;;;;;;14.20;99.90;;;;;;5075260;28;19923;-81
2023/06/28 01:30:17;;;;;;;;;;;14.20;99.90;;;;;;5092760;28;20314;-77
2023/06/28 01:32:48;;;;;;;;;;;14.20;99.90;;;;;;5076301;28;19951;-76
2023/06/28 01:35:14;;;;;;;;;;;14.20;99.90;;;;;;5092629;28;19920;-81
2023/06/28 01:37:40;;;;;;;;;;;14.20;99.90;;;;;;5091852;28;19927;-76
2023/06/28 01:40:08;;;;;;;;;;;14.20;99.90;;;;;;5058360;28;20673;-77
2023/06/28 01:42:34;;;;;;;;;;;14.20;99.90;;;;;;5074985;28;19922;-82
2023/06/28 01:45:01;;;;;;;;;;;14.10;99.90;;;;;;5092096;28;19916;-79
2023/06/28 01:47:26;;;;;;;;;;;14.20;99.90;;;;;;5092508;28;20425;-83
2023/06/28 01:49:52;;;;;;;;;;;14.20;99.90;;;;;;5092114;28;20003;-79
2023/06/28 01:52:17;;;;;;;;;;;14.20;99.90;;;;;;5075317;28;19962;-79
2023/06/28 01:54:43;;;;;;;;;;;14.20;99.90;;;;;;5090937;28;20261;-77
2023/06/28 01:57:09;;;;;;;;;;;14.20;99.90;;;;;;5091567;28;19924;-80
2023/06/28 01:59:35;;;;;;;;;;;14.20;99.90;;;;;;5091664;28;19926;-79
2023/06/28 02:02:01;;;;;;;;;;;14.10;99.90;;;;;;5092124;28;19920;-80
2023/06/28 02:04:27;;;;;;;;;;;14.10;99.90;;;;;;5125856;27;19965;-78
2023/06/28 02:06:52;;;;;;;;;;;14.10;99.90;;;;;;5074548;28;19920;-76
2023/06/28 02:09:18;;;;;;;;;;;14.10;99.90;;;;;;5091916;28;19919;-77
2023/06/28 02:11:44;;;;;;;;;;;14.10;99.90;;;;;;5091396;28;20010;-81
2023/06/28 02:14:09;;;;;;;;;;;14.20;99.90;;;;;;5091365;28;19991;-78
2023/06/28 02:16:35;;;;;;;;;;;14.20;99.90;;;;;;5090955;28;19946;-76
2023/06/28 02:19:01;;;;;;;;;;;14.20;99.90;;;;;;5091495;28;19923;-81
2023/06/28 02:21:27;;;;;;;;;;;14.20;99.90;;;;;;5091081;28;20574;-78
2023/06/28 02:23:52;;;;;;;;;;;14.20;99.90;;;;;;5091185;28;19920;-80
2023/06/28 02:26:18;;;;;;;;;;;14.20;99.90;;;;;;5091004;28;19923;-81
2023/06/28 02:28:44;;;;;;;;;;;14.20;99.90;;;;;;5074408;28;19920;-77
2023/06/28 02:31:10;;;;;;;;;;;14.10;99.90;;;;;;5091303;28;19942;-78
2023/06/28 02:33:35;;;;;;;;;;;14.20;99.90;;;;;;5090854;28;19920;-78
2023/06/28 02:36:01;;;;;;;;;;;14.10;99.90;;;;;;5090702;28;19977;-78
2023/06/28 02:38:26;;;;;;;;;;;14.10;99.90;;;;;;5091155;28;19920;-80
2023/06/28 02:40:52;;;;;;;;;;;14.10;99.90;;;;;;5090483;28;19920;-79
2023/06/28 02:43:17;;;;;;;;;;;14.10;99.90;;;;;;5092011;28;20018;-80
2023/06/28 02:45:43;;;;;;;;;;;14.10;99.90;;;;;;5090339;28;20277;-75
2023/06/28 02:48:08;;;;;;;;;;;14.10;99.90;;;;;;5090770;28;19923;-80
2023/06/28 02:50:34;;;;;;;;;;;14.10;99.90;;;;;;5073987;28;20351;-77
2023/06/28 02:53:00;;;;;;;;;;;14.20;99.90;;;;;;5090731;28;19920;-80
2023/06/28 02:55:25;;;;;;;;;;;14.20;99.90;;;;;;5090726;28;19927;-78
2023/06/28 02:57:52;;;;;;;;;;;14.20;99.90;;;;;;5089921;28;20616;-81
2023/06/28 03:00:17;;;;;;;;;;;14.20;99.90;;;;;;5089713;28;19920;-80
2023/06/28 03:02:43;;;;;;;;;;;14.20;99.90;;;;;;5089952;28;19989;-81
2023/06/28 03:05:08;;;;;;;;;;;14.20;99.90;;;;;;5089726;28;19958;-82
2023/06/28 03:07:34;;;;;;;;;;;14.30;99.90;;;;;;5090692;28;19920;-76
2023/06/28 03:09:59;;;;;;;;;;;14.30;99.90;;;;;;5090669;28;19959;-76
2023/06/28 03:12:25;;;;;;;;;;;14.40;99.90;;;;;;5091038;28;19916;-79
2023/06/28 03:14:51;;;;;;;;;;;14.40;99.90;;;;;;5090626;28;19916;-77
2023/06/28 03:17:19;;;;;;;;;;;14.40;99.90;;;;;;5090953;28;19924;-75
2023/06/28 03:19:45;;;;;;;;;;;14.40;99.90;;;;;;5090818;28;19963;-81
2023/06/28 03:22:10;;;;;;;;;;;14.50;99.90;;;;;;5091858;28;20368;-77
2023/06/28 03:24:36;;;;;;;;;;;14.50;99.90;;;;;;5090300;28;19920;-82
2023/06/28 03:27:02;;;;;;;;;;;14.50;99.90;;;;;;5090398;28;20018;-78
2023/06/28 03:29:28;;;;;;;;;;;14.50;99.90;;;;;;5090548;28;19963;-79
2023/06/28 03:31:55;;;;;;;;;;;14.50;99.90;;;;;;5090285;28;19965;-80
2023/06/28 03:34:20;;;;;;;;;;;14.60;99.90;;;;;;5074081;28;19988;-78
2023/06/28 03:36:49;;;;;;;;;;;14.60;99.90;;;;;;5091307;28;19924;-78
2023/06/28 03:39:15;;;;;;;;;;;14.60;99.90;;;;;;5090363;28;19924;-76
2023/06/28 03:41:46;;;;;;;;;;;14.60;99.90;;;;;;5090720;28;19920;-78
2023/06/28 03:44:13;;;;;;;;;;;14.60;99.90;;;;;;5073694;28;20284;-80
2023/06/28 03:46:39;;;;;;;;;;;14.60;99.90;;;;;;5091243;28;19916;-75
2023/06/28 03:49:05;;;;;;;;;;;14.60;99.90;;;;;;5089796;28;19920;-76
2023/06/28 03:51:30;;;;;;;;;;;14.60;99.90;;;;;;5091433;28;20020;-81
2023/06/28 03:53:56;;;;;;;;;;;14.60;99.90;;;;;;5090201;28;19920;-77
2023/06/28 03:56:21;;;;;;;;;;;14.60;99.90;;;;;;5090195;28;19927;-81
2023/06/28 03:58:49;;;;;;;;;;;14.60;99.90;;;;;;5073336;28;19920;-77
2023/06/28 04:01:15;;;;;;;;;;;14.60;99.90;;;;;;5090619;28;20011;-80
2023/06/28 04:03:40;;;;;;;;;;;14.60;99.90;;;;;;5090345;28;20525;-79
2023/06/28 04:06:06;;;;;;;;;;;14.60;99.90;;;;;;5072897;28;20266;-79
2023/06/28 04:08:33;;;;;;;;;;;14.60;99.90;;;;;;5090670;28;19998;-79
2023/06/28 04:10:58;;;;;;;;;;;14.60;99.90;;;;;;5090053;28;19916;-82
2023/06/28 04:13:25;;;;;;;;;;;14.60;99.90;;;;;;5090390;28;19969;-78
2023/06/28 04:15:52;;;;;;;;;;;14.60;99.90;;;;;;5089935;28;19954;-76
2023/06/28 04:18:19;;;;;;;;;;;14.70;99.90;;;;;;5076244;28;19916;-79
2023/06/28 04:20:44;;;;;;;;;;;14.60;99.90;;;;;;5093505;28;20006;-78
2023/06/28 04:23:10;;;;;;;;;;;14.60;99.90;;;;;;5093490;28;20002;-77
2023/06/28 04:25:37;;;;;;;;;;;14.70;99.90;;;;;;5076496;28;19931;-79
2023/06/28 04:28:02;;;;;;;;;;;14.70;99.90;;;;;;5093930;28;19916;-78
2023/06/28 04:30:31;;;;;;;;;;;14.70;99.90;;;;;;5093601;28;19926;-81
2023/06/28 04:32:57;;;;;;;;;;;14.80;99.90;;;;;;5093681;28;20377;-79
2023/06/28 04:35:22;;;;;;;;;;;14.80;99.90;;;;;;5077220;28;19927;-76
2023/06/28 04:37:50;;;;;;;;;;;14.70;99.90;;;;;;5093138;28;19920;-76
2023/06/28 04:40:16;;;;;;;;;;;14.70;99.90;;;;;;5092949;28;19927;-82
2023/06/28 04:42:41;;;;;;;;;;;14.70;99.90;;;;;;5093686;28;19916;-78
2023/06/28 04:45:09;;;;;;;;;;;14.70;99.90;;;;;;5092896;28;19963;-80
2023/06/28 04:47:36;;;;;;;;;;;14.70;99.90;;;;;;5093191;28;20381;-78
2023/06/28 04:50:02;;;;;;;;;;;14.70;99.90;;;;;;5092672;28;19916;-80
2023/06/28 04:52:28;;;;;;;;;;;14.70;99.90;;;;;;5110616;28;20007;-79
2023/06/28 04:54:54;;;;;;;;;;;14.70;99.90;;;;;;5092980;28;20383;-78
2023/06/28 04:57:20;;;;;;;;;;;14.70;99.90;;;;;;5093258;28;19920;-77
2023/06/28 04:59:47;;;;;;;;;;;14.70;99.90;;;;;;5092771;28;19942;-78
2023/06/28 05:02:14;;;;;;;;;;;14.70;99.90;;;;;;5092679;28;19919;-81
2023/06/28 05:04:40;;;;;;;;;;;14.70;99.90;;;;;;5093207;28;19916;-80
2023/06/28 05:07:06;;;;;;;;;;;14.70;99.90;;;;;;5094089;28;19981;-78
2023/06/28 05:09:33;;;;;;;;;;;14.80;99.90;;;;;;5093518;28;20321;-78
2023/06/28 05:12:00;;;;;;;;;;;14.70;99.90;;;;;;5092942;28;19920;-75
2023/06/28 05:14:26;;;;;;;;;;;14.80;99.90;;;;;;5077360;28;19915;-77
2023/06/28 05:16:52;;;;;;;;;;;14.80;99.90;;;;;;5093805;28;20277;-80
2023/06/28 05:19:18;;;;;;;;;;;14.50;99.90;;;;;;5093576;28;19924;-77
2023/06/28 05:21:44;;;;;;;;;;;14.90;99.90;;;;;;5092449;28;20401;-80
2023/06/28 05:24:10;;;;;;;;;;;14.90;99.90;;;;;;5092886;28;19973;-79
2023/06/28 05:26:36;;;;;;;;;;;14.90;99.90;;;;;;5092857;28;19921;-78
2023/06/28 05:29:01;;;;;;;;;;;14.90;99.90;;;;;;5074344;28;20029;-77
2023/06/28 05:31:27;;;;;;;;;;;14.90;99.90;;;;;;5076443;28;19961;-80
2023/06/28 05:33:53;;;;;;;;;;;15.00;99.90;;;;;;5058604;28;20006;-76
2023/06/28 05:36:20;;;;;;;;;;;15.00;99.90;;;;;;5092429;28;19926;-78
2023/06/28 05:38:46;;;;;;;;;;;15.00;99.90;;;;;;5109038;28;19920;-80
2023/06/28 05:41:12;;;;;;;;;;;15.00;99.90;;;;;;5092081;28;20448;-78
2023/06/28 05:43:38;;;;;;;;;;;15.10;99.90;;;;;;5092460;28;20238;-78
2023/06/28 05:46:03;;;;;;;;;;;15.20;99.90;;;;;;5091671;28;19927;-78
2023/06/28 05:48:30;;;;;;;;;;;15.30;99.90;;;;;;5091723;28;19966;-80
2023/06/28 05:50:56;;;;;;;;;;;15.40;99.90;;;;;;5091612;28;19920;-82
2023/06/28 05:53:22;;;;;;;;;;;15.50;99.90;;;;;;5092071;28;19939;-76
2023/06/28 05:55:47;;;;;;;;;;;15.60;99.90;;;;;;5058350;28;20376;-79
2023/06/28 05:58:13;;;;;;;;;;;15.70;99.90;;;;;;5091464;28;19963;-78
2023/06/28 06:00:38;;;;;;;;;;;15.80;99.90;;;;;;5091897;28;20360;-79
2023/06/28 06:03:04;;;;;;;;;;;15.80;99.90;;;;;;5091301;28;19920;-79
2023/06/28 06:05:29;;;;;;;;;;;15.90;99.90;;;;;;5091949;28;20051;-81
2023/06/28 06:07:55;;;;;;;;;;;16.00;99.90;;;;;;5091080;28;20490;-79
2023/06/28 06:10:20;;;;;;;;;;;16.00;99.90;;;;;;5091357;28;19915;-81
2023/06/28 06:12:47;;;;;;;;;;;16.10;99.90;;;;;;5074556;28;19924;-79
2023/06/28 06:15:12;;;;;;;;;;;16.20;99.90;;;;;;5091412;28;19920;-79
2023/06/28 06:17:38;;;;;;;;;;;16.30;99.90;;;;;;5091350;28;20007;-81
2023/06/28 06:20:04;;;;;;;;;;;16.40;99.90;;;;;;5074680;28;20019;-76
2023/06/28 06:22:30;;;;;;;;;;;16.40;99.90;;;;;;5091312;28;19926;-80
2023/06/28 06:24:55;;;;;;;;;;;16.40;99.90;;;;;;5091136;28;19916;-80
2023/06/28 06:27:21;;;;;;;;;;;16.40;99.90;;;;;;5091353;28;20331;-80
2023/06/28 06:29:47;;;;;;;;;;;16.30;99.90;;;;;;5091274;28;19919;-76
2023/06/28 06:32:16;;;;;;;;;;;16.30;99.90;;;;;;5092965;28;19922;-76
2023/06/28 06:34:41;;;;;;;;;;;16.30;99.90;;;;;;5091600;28;20018;-77
2023/06/28 06:37:11;;;;;;;;;;;16.30;99.90;;;;;;5090682;28;19988;-78
2023/06/28 06:39:38;;;;;;;;;;;16.30;99.90;;;;;;5091190;28;20315;-83
2023/06/28 06:42:04;;;;;;;;;;;16.30;99.90;;;;;;5090769;28;19923;-79
2023/06/28 06:44:30;;;;;;;;;;;16.20;99.90;;;;;;5108138;28;19916;-80
2023/06/28 06:46:55;;;;;;;;;;;16.20;99.90;;;;;;5091056;28;20017;-77
2023/06/28 06:49:21;;;;;;;;;;;16.20;99.90;;;;;;5074259;28;19927;-79
2023/06/28 06:51:47;;;;;;;;;;;16.20;99.90;;;;;;5090990;28;19920;-80
2023/06/28 06:54:12;;;;;;;;;;;16.20;99.90;;;;;;5091007;28;19923;-78
2023/06/28 06:56:39;;;;;;;;;;;16.20;99.90;;;;;;5091284;28;19920;-80
2023/06/28 06:59:05;;;;;;;;;;;16.20;99.90;;;;;;5074334;28;20011;-78
2023/06/28 07:01:32;;;;;;;;;;;16.10;99.90;;;;;;5091174;28;20531;-77
2023/06/28 07:03:58;;;;;;;;;;;16.10;99.90;;;;;;5091186;28;20288;-79
2023/06/28 07:06:24;;;;;;;;;;;16.00;99.90;;;;;;5091533;28;19931;-81
2023/06/28 07:08:50;;;;;;;;;;;16.00;99.90;;;;;;5091046;28;19920;-78
2023/06/28 07:11:15;;;;;;;;;;;16.00;99.90;;;;;;5090679;28;19916;-76
2023/06/28 07:13:41;;;;;;;;;;;15.90;99.90;;;;;;5057935;28;19973;-81
2023/06/28 07:16:07;;;;;;;;;;;15.90;99.90;;;;;;5091071;28;19924;-79
2023/06/28 07:18:32;;;;;;;;;;;15.90;99.90;;;;;;5091850;28;19927;-81
2023/06/28 07:20:58;;;;;;;;;;;15.90;99.90;;;;;;5091306;28;20451;-79
2023/06/28 07:23:23;;;;;;;;;;;15.90;99.90;;;;;;5074104;28;19976;-77
2023/06/28 07:25:49;;;;;;;;;;;16.00;99.90;;;;;;5091231;28;19916;-83
2023/06/28 07:28:15;;;;;;;;;;;16.00;99.90;;;;;;5092040;28;20014;-80
2023/06/28 07:30:51;;;;;;;;;;;16.10;99.90;;;;;;5091126;28;19916;-80
2023/06/28 07:33:16;;;;;;;;;;;16.20;99.90;;;;;;5090389;28;19931;-79
2023/06/28 07:35:45;;;;;;;;;;;16.40;99.90;;;;;;5092407;28;19919;-76
2023/06/28 07:38:11;;;;;;;;;;;16.50;99.90;;;;;;5073909;28;20365;-77
2023/06/28 07:40:36;;;;;;;;;;;16.50;99.90;;;;;;5073902;28;20006;-78
2023/06/28 07:43:02;;;;;;;;;;;16.40;99.90;;;;;;5074181;28;19916;-77
2023/06/28 07:45:28;;;;;;;;;;;16.30;99.90;;;;;;5091252;28;19916;-80
2023/06/28 07:47:54;;;;;;;;;;;16.30;99.90;;;;;;5074329;28;19916;-80
2023/06/28 07:50:20;;;;;;;;;;;16.30;99.90;;;;;;5089879;28;20442;-79
2023/06/28 07:52:46;;;;;;;;;;;16.40;99.90;;;;;;5076502;28;19963;-78
2023/06/28 07:55:13;;;;;;;;;;;16.50;99.90;;;;;;5077389;28;19966;-79
2023/06/28 07:57:38;;;;;;;;;;;16.70;99.90;;;;;;5093975;28;19920;-77
2023/06/28 08:00:04;;;;;;;;;;;16.80;99.90;;;;;;5076698;28;19927;-78
2023/06/28 08:02:30;;;;;;;;;;;16.90;99.90;;;;;;5094008;28;19916;-78
2023/06/28 08:04:58;;;;;;;;;;;17.00;99.90;;;;;;5110898;28;19999;-79
2023/06/28 08:07:24;;;;;;;;;;;17.00;99.90;;;;;;5093664;28;19941;-76
2023/06/28 08:09:49;;;;;;;;;;;17.00;99.90;;;;;;5077356;28;20007;-76
2023/06/28 08:12:21;;;;;;;;;;;17.00;99.90;;;;;;5093778;28;19923;-79
2023/06/28 08:14:47;;;;;;;;;;;17.00;99.90;;;;;;5093692;28;19919;-80
2023/06/28 08:17:12;;;;;;;;;;;17.10;99.90;;;;;;5093172;28;20301;-79
2023/06/28 08:19:38;;;;;;;;;;;17.10;99.90;;;;;;5093846;28;19927;-78
2023/06/28 08:22:04;;;;;;;;;;;17.10;99.90;;;;;;5076816;28;19923;-78
2023/06/28 08:24:29;;;;;;;;;;;17.20;99.90;;;;;;5094943;28;20381;-78
2023/06/28 08:26:55;;;;;;;;;;;17.30;99.90;;;;;;5076689;28;20006;-76
2023/06/28 08:29:23;;;;;;;;;;;17.40;99.90;;;;;;5093544;28;20010;-79
2023/06/28 08:31:49;;;;;;;;;;;17.50;99.90;;;;;;5093843;28;20011;-78
2023/06/28 08:34:18;;;;;;;;;;;17.60;99.90;;;;;;5076714;28;20002;-82
2023/06/28 08:36:44;;;;;;;;;;;17.60;99.90;;;;;;5093438;28;19924;-78
2023/06/28 08:39:14;;;;;;;;;;;17.70;99.90;;;;;;5092957;28;20006;-77
2023/06/28 08:41:41;;;;;;;;;;;17.70;99.90;;;;;;5093719;28;19916;-82
2023/06/28 08:44:08;;;;;;;;;;;17.80;99.90;;;;;;5093556;28;19926;-80
2023/06/28 08:46:34;;;;;;;;;;;17.80;99.90;;;;;;5093899;28;20465;-76
2023/06/28 08:49:00;;;;;;;;;;;17.90;99.90;;;;;;5093693;28;20369;-79
2023/06/28 08:51:26;;;;;;;;;;;17.90;99.90;;;;;;5072763;28;19970;-80
2023/06/28 08:53:54;;;;;;;;;;;17.80;99.90;;;;;;5107572;28;19916;-78
2023/06/28 08:56:22;;;;;;;;;;;17.70;99.90;;;;;;5072783;28;20019;-81
2023/06/28 08:58:48;;;;;;;;;;;17.60;99.90;;;;;;5073152;28;20280;-79
2023/06/28 09:01:22;;;;;;;;;;;17.60;99.90;;;;;;5106899;28;19927;-80
2023/06/28 09:03:47;;;;;;;;;;;17.60;99.90;;;;;;5106688;28;19921;-78
2023/06/28 09:06:13;;;;;;;;;;;17.60;99.90;;;;;;5124224;27;19916;-79
2023/06/28 09:08:39;;;;;;;;;;;17.50;99.90;;;;;;5093653;28;19916;-78
2023/06/28 09:11:04;;;;;;;;;;;17.40;99.90;;;;;;5077213;28;20429;-84
2023/06/28 09:13:30;;;;;;;;;;;17.30;99.90;;;;;;5092565;28;19920;-80
2023/06/28 09:15:56;;;;;;;;;;;17.30;99.90;;;;;;5076294;28;20272;-83
2023/06/28 09:18:22;;;;;;;;;;;17.40;99.90;;;;;;5093454;28;19974;-79
2023/06/28 09:20:51;;;;;;;;;;;17.40;99.90;;;;;;5092887;28;19916;-77
2023/06/28 09:23:24;;;;;;;;;;;17.50;99.90;;;;;;5087568;28;19939;-82
2023/06/28 09:25:53;;;;;;;;;;;17.60;99.90;;;;;;5092749;28;19938;-77
2023/06/28 09:28:19;;;;;;;;;;;17.60;99.90;;;;;;5092635;28;20281;-78
2023/06/28 09:30:50;;;;;;;;;;;17.60;99.90;;;;;;5093116;28;19923;-81
2023/06/28 09:33:17;;;;;;;;;;;17.50;99.90;;;;;;5092547;28;20411;-80
2023/06/28 09:35:43;;;;;;;;;;;17.40;99.90;;;;;;5093142;28;19916;-82
2023/06/28 09:38:08;;;;;;;;;;;17.40;99.90;;;;;;5092527;28;19953;-81
2023/06/28 09:40:34;;;;;;;;;;;17.40;99.90;;;;;;5092732;28;20444;-83
2023/06/28 09:43:00;;;;;;;;;;;17.40;99.90;;;;;;5092685;28;20012;-81
2023/06/28 09:45:27;;;;;;;;;;;17.40;99.90;;;;;;5092247;28;20018;-77
2023/06/28 09:47:59;;;;;;;;;;;17.50;99.90;;;;;;5092807;28;19916;-78
2023/06/28 09:50:36;;;;;;;;;;;17.50;99.90;;;;;;5091822;28;19920;-77
2023/06/28 09:53:02;;;;;;;;;;;17.60;99.90;;;;;;5108973;28;19923;-81
2023/06/28 09:55:28;;;;;;;;;;;17.70;99.90;;;;;;5092354;28;19923;-81
2023/06/28 09:57:54;;;;;;;;;;;17.70;99.90;;;;;;5092783;28;19920;-80
2023/06/28 10:00:20;;;;;;;;;;;17.70;99.90;;;;;;5092422;28;19926;-84
2023/06/28 10:02:47;;;;;;;;;;;17.60;99.90;;;;;;5092658;28;19943;-82
2023/06/28 10:05:15;;;;;;;;;;;17.60;99.90;;;;;;5091788;28;19942;-82
2023/06/28 10:07:42;;;;;;;;;;;17.50;99.90;;;;;;5092153;28;19920;-82
2023/06/28 10:10:08;;;;;;;;;;;17.50;99.90;;;;;;5091977;28;19965;-80
2023/06/28 10:12:35;;;;;;;;;;;17.40;99.90;;;;;;5092169;28;19916;-81
2023/06/28 10:15:06;;;;;;;;;;;17.30;99.90;;;;;;5092378;28;19968;-81
2023/06/28 10:17:33;;;;;;;;;;;17.30;99.90;;;;;;5091944;28;20380;-80
2023/06/28 10:19:59;;;;;;;;;;;17.30;99.90;;;;;;5109308;28;19916;-86
2023/06/28 10:22:24;;;;;;;;;;;17.40;99.90;;;;;;5092756;28;19920;-84
2023/06/28 10:24:51;;;;;;;;;;;17.50;99.90;;;;;;5108671;28;19916;-81
2023/06/28 10:27:18;;;;;;;;;;;17.60;99.90;;;;;;5109001;28;19927;-79
2023/06/28 10:29:49;;;;;;;;;;;17.60;99.90;;;;;;5093907;28;19924;-78
2023/06/28 10:32:15;;;;;;;;;;;17.60;99.90;;;;;;5091434;28;19923;-79
2023/06/28 10:34:40;;;;;;;;;;;17.60;99.90;;;;;;5092815;28;19916;-79
2023/06/28 10:37:06;;;;;;;;;;;17.60;99.90;;;;;;5091549;28;19924;-77
2023/06/28 10:39:34;;;;;;;;;;;17.60;99.90;;;;;;5091574;28;19924;-81
2023/06/28 10:42:00;;;;;;;;;;;17.60;99.90;;;;;;5092341;28;19965;-80
2023/06/28 10:44:26;;;;;;;;;;;17.50;99.90;;;;;;5074940;28;20393;-84
2023/06/28 10:47:11;;;;;;;;;;;17.60;99.90;;;;;;5091870;28;20003;-83
2023/06/28 10:49:38;;;;;;;;;;;17.50;99.90;;;;;;5108304;28;19931;-78
2023/06/28 10:52:11;;;;;;;;;;;17.50;99.90;;;;;;5091739;28;20323;-80
2023/06/28 10:54:45;;;;;;;;;;;17.60;99.90;;;;;;5092020;28;19949;-79
2023/06/28 10:57:11;;;;;;;;;;;17.60;99.90;;;;;;5091634;28;20246;-81
2023/06/28 10:59:40;;;;;;;;;;;17.50;99.90;;;;;;5090839;28;19978;-83
2023/06/28 11:02:06;;;;;;;;;;;17.50;99.90;;;;;;5108458;28;19916;-84
2023/06/28 11:04:31;;;;;;;;;;;17.50;99.90;;;;;;5091684;28;19927;-80
2023/06/28 11:07:03;;;;;;;;;;;17.50;99.90;;;;;;5091018;28;19927;-79
2023/06/28 11:09:29;;;;;;;;;;;17.60;99.90;;;;;;5073910;28;20268;-82
2023/06/28 11:11:59;;;;;;;;;;;17.60;99.90;;;;;;5075061;28;20006;-79
2023/06/28 11:14:30;;;;;;;;;;;17.60;99.90;;;;;;5074615;28;19931;-84
2023/06/28 11:17:02;;;;;;;;;;;17.70;99.90;;;;;;5091437;28;20005;-84
2023/06/28 11:19:28;;;;;;;;;;;17.60;99.90;;;;;;5090995;28;19984;-82
2023/06/28 11:22:00;;;;;;;;;;;17.60;99.90;;;;;;5092164;28;20021;-83
2023/06/28 11:24:33;;;;;;;;;;;17.60;99.90;;;;;;5092210;28;20578;-77
2023/06/28 11:26:58;;;;;;;;;;;17.50;99.90;;;;;;5076360;28;19916;-77
2023/06/28 11:29:24;;;;;;;;;;;17.50;99.90;;;;;;5096294;28;19973;-80
2023/06/28 11:31:51;;;;;;;;;;;17.50;99.90;;;;;;5095632;28;19916;-80
2023/06/28 11:34:17;;;;;;;;;;;17.40;99.90;;;;;;5095498;28;19920;-85
2023/06/28 11:36:43;;;;;;;;;;;17.40;99.90;;;;;;5079490;28;19972;-79
2023/06/28 11:39:16;;;;;;;;;;;17.30;99.90;;;;;;5096086;28;19916;-80
2023/06/28 11:41:42;;;;;;;;;;;17.30;99.90;;;;;;5096418;28;19916;-77
2023/06/28 11:44:09;;;;;;;;;;;17.30;99.90;;;;;;5096555;28;20326;-79
2023/06/28 11:46:35;;;;;;;;;;;17.30;99.90;;;;;;5096103;28;20013;-80
2023/06/28 11:49:01;;;;;;;;;;;17.20;99.90;;;;;;5096008;28;19916;-82
2023/06/28 11:51:27;;;;;;;;;;;17.30;99.90;;;;;;5075979;28;20339;-78
2023/06/28 11:53:55;;;;;;;;;;;17.30;99.90;;;;;;5074769;28;20000;-78
2023/06/28 11:56:40;;;;;;;;;;;17.30;99.90;;;;;;5074688;28;19923;-77
2023/06/28 11:59:16;;;;;;;;;;;17.30;99.90;;;;;;5108782;28;19916;-84
2023/06/28 12:01:42;;;;;;;;;;;17.40;99.90;;;;;;5095242;28;20280;-80
2023/06/28 12:04:15;;;;;;;;;;;17.40;99.90;;;;;;5095194;28;20376;-81
2023/06/28 12:06:41;;;;;;;;;;;17.40;99.90;;;;;;5077596;28;19966;-82
2023/06/28 12:09:20;;;;;;;;;;;17.50;99.90;;;;;;5095554;28;20403;-78
2023/06/28 12:11:51;;;;;;;;;;;17.50;99.90;;;;;;5095097;28;19967;-80
2023/06/28 12:14:23;;;;;;;;;;;17.60;99.90;;;;;;5079273;28;19923;-83
2023/06/28 12:16:50;;;;;;;;;;;17.50;99.90;;;;;;5078493;28;19947;-83
2023/06/28 12:19:16;;;;;;;;;;;17.60;99.90;;;;;;5094934;28;19920;-80
2023/06/28 12:21:42;;;;;;;;;;;17.80;99.90;;;;;;5077908;28;19916;-79
2023/06/28 12:24:12;;;;;;;;;;;17.80;99.90;;;;;;5078008;28;20300;-81
2023/06/28 12:26:37;;;;;;;;;;;17.90;99.90;;;;;;5094655;28;19955;-80
2023/06/28 12:29:06;;;;;;;;;;;18.00;99.90;;;;;;5095008;28;20350;-79
2023/06/28 12:31:58;;;;;;;;;;;18.00;99.90;;;;;;5061355;28;19916;-82
2023/06/28 12:34:34;;;;;;;;;;;18.10;99.90;;;;;;5094154;28;19981;-83
2023/06/28 12:37:12;;;;;;;;;;;18.20;99.90;;;;;;5078727;28;19924;-78
2023/06/28 12:39:38;;;;;;;;;;;18.20;99.90;;;;;;5077734;28;19920;-81
2023/06/28 12:42:12;;;;;;;;;;;18.30;99.90;;;;;;5094992;28;19962;-78
2023/06/28 12:44:50;;;;;;;;;;;18.20;99.90;;;;;;5095076;28;19961;-82
2023/06/28 12:47:19;;;;;;;;;;;18.20;99.90;;;;;;5095403;28;20644;-80
2023/06/28 12:49:45;;;;;;;;;;;18.20;99.90;;;;;;5078055;28;19970;-78
2023/06/28 12:52:11;;;;;;;;;;;18.20;99.90;;;;;;5098923;28;19916;-79
2023/06/28 12:54:36;;;;;;;;;;;18.30;99.90;;;;;;5098863;28;20361;-80
2023/06/28 12:57:03;;;;;;;;;;;18.30;99.90;;;;;;5077901;28;19965;-76
2023/06/28 12:59:32;;;;;;;;;;;18.40;99.90;;;;;;5129907;27;19916;-80
2023/06/28 13:01:58;;;;;;;;;;;18.50;99.90;;;;;;5096067;28;19975;-80
2023/06/28 13:04:26;;;;;;;;;;;18.50;99.90;;;;;;5077110;28;19980;-80
2023/06/28 13:06:52;;;;;;;;;;;18.50;99.90;;;;;;5095882;28;19920;-82
2023/06/28 13:09:18;;;;;;;;;;;18.50;99.90;;;;;;5094298;28;19916;-80
2023/06/28 13:11:44;;;;;;;;;;;18.50;99.90;;;;;;5098743;28;19920;-79
2023/06/28 13:14:10;;;;;;;;;;;18.50;99.90;;;;;;5082343;28;20038;-79
2023/06/28 13:16:35;;;;;;;;;;;18.50;99.90;;;;;;5094228;28;19919;-77
2023/06/28 13:19:01;;;;;;;;;;;18.60;99.90;;;;;;5096417;28;19916;-79
2023/06/28 13:21:27;;;;;;;;;;;18.60;99.90;;;;;;5079052;28;19916;-79
2023/06/28 13:23:52;;;;;;;;;;;18.60;99.90;;;;;;5080413;28;19923;-81
2023/06/28 13:26:18;;;;;;;;;;;18.50;99.90;;;;;;5097283;28;19919;-78
2023/06/28 13:28:44;;;;;;;;;;;18.50;99.90;;;;;;5097732;28;20357;-81
2023/06/28 13:31:10;;;;;;;;;;;18.50;99.90;;;;;;5079111;28;19916;-80
2023/06/28 13:33:35;;;;;;;;;;;18.50;99.90;;;;;;5093477;28;19923;-79
2023/06/28 13:36:03;;;;;;;;;;;18.40;99.90;;;;;;5079985;28;19938;-79
2023/06/28 13:38:30;;;;;;;;;;;18.40;99.90;;;;;;5095414;28;19920;-78
2023/06/28 13:40:56;;;;;;;;;;;18.50;99.90;;;;;;5062868;28;19927;-78
2023/06/28 13:43:21;;;;;;;;;;;18.60;99.90;;;;;;5094550;28;19916;-79
2023/06/28 13:45:47;;;;;;;;;;;18.70;99.90;;;;;;5058932;28;20685;-81
2023/06/28 13:48:13;;;;;;;;;;;18.70;99.90;;;;;;5093415;28;19916;-80
2023/06/28 13:50:38;;;;;;;;;;;18.80;99.90;;;;;;5091271;28;19974;-78
2023/06/28 13:53:04;;;;;;;;;;;18.80;99.90;;;;;;5075900;28;19961;-82
2023/06/28 13:55:30;;;;;;;;;;;18.80;99.90;;;;;;5075857;28;19923;-80
2023/06/28 13:58:01;;;;;;;;;;;18.80;99.90;;;;;;5092386;28;19927;-79
2023/06/28 14:00:27;;;;;;;;;;;18.70;99.90;;;;;;5092641;28;19928;-83
2023/06/28 14:02:54;;;;;;;;;;;18.80;99.90;;;;;;5092568;28;20436;-77
2023/06/28 14:05:19;;;;;;;;;;;18.70;99.90;;;;;;5092515;28;19967;-77
2023/06/28 14:07:45;;;;;;;;;;;18.70;99.90;;;;;;5075679;28;20384;-77
2023/06/28 14:10:11;;;;;;;;;;;18.70;99.90;;;;;;5092538;28;19924;-79
2023/06/28 14:12:37;;;;;;;;;;;18.60;99.90;;;;;;5092522;28;19920;-78
2023/06/28 14:15:03;;;;;;;;;;;18.50;99.90;;;;;;5092492;28;19941;-78